sensor_id;sensor_type;location;lat;lon;timestamp;P1;durP1;ratioP1;P2;durP2;ratioP2
27670;SDS011;15077;49.704;9.908;2023-02-22T00:00:40;4.03;;;2.85;;
27670;SDS011;15077;49.704;9.908;2023-02-22T00:03:11;4.38;;;3.47;;
27670;SDS011;15077;49.704;9.908;2023-02-22T00:05:55;3.35;;;3.05;;
27670;SDS011;15077;49.704;9.908;2023-02-22T00:08:30;3.97;;;2.97;;
27670;SDS011;15077;49.704;9.908;2023-02-22T00:10:59;4.30;;;3.25;;
27670;SDS011;15077;49.704;9.908;2023-02-22T00:13:29;7.10;;;3.58;;
27670;SDS011;15077;49.704;9.908;2023-02-22T00:15:55;4.65;;;3.20;;
27670;SDS011;15077;49.704;9.908;2023-02-22T00:18:22;3.63;;;3.03;;
27670;SDS011;15077;49.704;9.908;2023-02-22T00:20:51;4.18;;;2.80;;
27670;SDS011;15077;49.704;9.908;2023-02-22T00:23:18;4.05;;;2.90;;
27670;SDS011;15077;49.704;9.908;2023-02-22T00:25:47;3.95;;;3.22;;
27670;SDS011;15077;49.704;9.908;2023-02-22T00:28:15;5.80;;;3.42;;
27670;SDS011;15077;49.704;9.908;2023-02-22T00:30:43;4.38;;;3.35;;
27670;SDS011;15077;49.704;9.908;2023-02-22T00:33:10;5.38;;;3.67;;
27670;SDS011;15077;49.704;9.908;2023-02-22T00:35:37;8.30;;;5.18;;
27670;SDS011;15077;49.704;9.908;2023-02-22T00:38:03;6.97;;;5.35;;
27670;SDS011;15077;49.704;9.908;2023-02-22T00:40:31;7.20;;;5.05;;
27670;SDS011;15077;49.704;9.908;2023-02-22T00:43:00;7.38;;;5.25;;
27670;SDS011;15077;49.704;9.908;2023-02-22T00:45:30;5.95;;;4.18;;
27670;SDS011;15077;49.704;9.908;2023-02-22T00:47:58;5.45;;;4.15;;
27670;SDS011;15077;49.704;9.908;2023-02-22T00:50:25;5.13;;;3.65;;
27670;SDS011;15077;49.704;9.908;2023-02-22T00:52:54;6.90;;;4.57;;
27670;SDS011;15077;49.704;9.908;2023-02-22T00:55:23;5.47;;;3.80;;
27670;SDS011;15077;49.704;9.908;2023-02-22T00:57:52;5.18;;;3.45;;
27670;SDS011;15077;49.704;9.908;2023-02-22T01:00:21;4.63;;;3.58;;
27670;SDS011;15077;49.704;9.908;2023-02-22T01:02:53;4.88;;;3.63;;
27670;SDS011;15077;49.704;9.908;2023-02-22T01:05:22;3.97;;;3.05;;
27670;SDS011;15077;49.704;9.908;2023-02-22T01:07:51;4.50;;;3.30;;
27670;SDS011;15077;49.704;9.908;2023-02-22T01:10:20;4.07;;;3.28;;
27670;SDS011;15077;49.704;9.908;2023-02-22T01:12:49;3.97;;;3.15;;
27670;SDS011;15077;49.704;9.908;2023-02-22T01:15:18;4.05;;;3.28;;
27670;SDS011;15077;49.704;9.908;2023-02-22T01:17:46;5.43;;;3.22;;
27670;SDS011;15077;49.704;9.908;2023-02-22T01:20:14;5.20;;;4.05;;
27670;SDS011;15077;49.704;9.908;2023-02-22T01:22:41;5.32;;;3.35;;
27670;SDS011;15077;49.704;9.908;2023-02-22T01:25:15;5.07;;;3.88;;
27670;SDS011;15077;49.704;9.908;2023-02-22T01:27:44;5.22;;;3.80;;
27670;SDS011;15077;49.704;9.908;2023-02-22T01:30:11;3.92;;;3.15;;
27670;SDS011;15077;49.704;9.908;2023-02-22T01:32:39;3.38;;;2.88;;
27670;SDS011;15077;49.704;9.908;2023-02-22T01:35:11;4.05;;;3.38;;
27670;SDS011;15077;49.704;9.908;2023-02-22T01:37:42;3.15;;;2.85;;
27670;SDS011;15077;49.704;9.908;2023-02-22T01:40:09;4.40;;;3.28;;
27670;SDS011;15077;49.704;9.908;2023-02-22T01:43:01;4.68;;;3.30;;
27670;SDS011;15077;49.704;9.908;2023-02-22T01:45:44;4.95;;;3.42;;
27670;SDS011;15077;49.704;9.908;2023-02-22T01:51:08;4.78;;;3.13;;
27670;SDS011;15077;49.704;9.908;2023-02-22T01:53:49;3.58;;;2.63;;
27670;SDS011;15077;49.704;9.908;2023-02-22T01:56:21;4.07;;;3.05;;
27670;SDS011;15077;49.704;9.908;2023-02-22T01:59:01;4.75;;;3.17;;
27670;SDS011;15077;49.704;9.908;2023-02-22T02:01:32;4.27;;;2.80;;
27670;SDS011;15077;49.704;9.908;2023-02-22T02:04:03;4.57;;;3.50;;
27670;SDS011;15077;49.704;9.908;2023-02-22T02:06:33;6.97;;;4.43;;
27670;SDS011;15077;49.704;9.908;2023-02-22T02:09:09;6.50;;;3.83;;
27670;SDS011;15077;49.704;9.908;2023-02-22T02:11:41;5.13;;;3.97;;
27670;SDS011;15077;49.704;9.908;2023-02-22T02:14:09;5.45;;;3.60;;
27670;SDS011;15077;49.704;9.908;2023-02-22T02:16:39;4.88;;;3.20;;
27670;SDS011;15077;49.704;9.908;2023-02-22T02:19:31;4.78;;;3.00;;
27670;SDS011;15077;49.704;9.908;2023-02-22T02:25:23;4.70;;;3.40;;
27670;SDS011;15077;49.704;9.908;2023-02-22T02:37:54;4.90;;;2.83;;
27670;SDS011;15077;49.704;9.908;2023-02-22T02:41:04;5.10;;;3.35;;
27670;SDS011;15077;49.704;9.908;2023-02-22T02:43:50;4.47;;;3.17;;
27670;SDS011;15077;49.704;9.908;2023-02-22T02:49:15;5.45;;;3.85;;
27670;SDS011;15077;49.704;9.908;2023-02-22T02:51:53;5.10;;;3.42;;
27670;SDS011;15077;49.704;9.908;2023-02-22T02:54:21;4.10;;;2.90;;
27670;SDS011;15077;49.704;9.908;2023-02-22T02:56:49;3.75;;;2.63;;
27670;SDS011;15077;49.704;9.908;2023-02-22T02:59:34;5.00;;;2.92;;
27670;SDS011;15077;49.704;9.908;2023-02-22T03:11:20;4.07;;;2.72;;
27670;SDS011;15077;49.704;9.908;2023-02-22T03:25:16;4.53;;;3.33;;
27670;SDS011;15077;49.704;9.908;2023-02-22T03:30:34;3.75;;;2.67;;
27670;SDS011;15077;49.704;9.908;2023-02-22T03:33:07;3.25;;;2.75;;
27670;SDS011;15077;49.704;9.908;2023-02-22T03:35:46;3.65;;;2.78;;
27670;SDS011;15077;49.704;9.908;2023-02-22T03:38:20;3.85;;;2.92;;
27670;SDS011;15077;49.704;9.908;2023-02-22T03:40:52;3.17;;;2.85;;
27670;SDS011;15077;49.704;9.908;2023-02-22T03:43:26;3.58;;;2.63;;
27670;SDS011;15077;49.704;9.908;2023-02-22T03:45:58;3.15;;;2.40;;
27670;SDS011;15077;49.704;9.908;2023-02-22T03:48:48;2.95;;;2.47;;
27670;SDS011;15077;49.704;9.908;2023-02-22T03:51:24;3.00;;;2.63;;
27670;SDS011;15077;49.704;9.908;2023-02-22T03:53:53;4.68;;;3.22;;
27670;SDS011;15077;49.704;9.908;2023-02-22T03:56:21;3.50;;;2.88;;
27670;SDS011;15077;49.704;9.908;2023-02-22T03:59:03;3.05;;;2.30;;
27670;SDS011;15077;49.704;9.908;2023-02-22T04:01:33;3.50;;;2.70;;
27670;SDS011;15077;49.704;9.908;2023-02-22T04:03:59;4.63;;;3.00;;
27670;SDS011;15077;49.704;9.908;2023-02-22T04:06:26;3.38;;;2.55;;
27670;SDS011;15077;49.704;9.908;2023-02-22T04:08:53;2.80;;;2.22;;
27670;SDS011;15077;49.704;9.908;2023-02-22T04:11:19;3.17;;;2.53;;
27670;SDS011;15077;49.704;9.908;2023-02-22T04:13:46;3.30;;;2.38;;
27670;SDS011;15077;49.704;9.908;2023-02-22T04:16:12;3.33;;;2.60;;
27670;SDS011;15077;49.704;9.908;2023-02-22T04:18:38;2.58;;;2.20;;
27670;SDS011;15077;49.704;9.908;2023-02-22T04:21:04;2.55;;;2.35;;
27670;SDS011;15077;49.704;9.908;2023-02-22T04:23:30;2.90;;;2.30;;
27670;SDS011;15077;49.704;9.908;2023-02-22T04:25:55;2.90;;;2.30;;
27670;SDS011;15077;49.704;9.908;2023-02-22T04:28:21;2.80;;;2.28;;
27670;SDS011;15077;49.704;9.908;2023-02-22T04:30:47;3.58;;;2.53;;
27670;SDS011;15077;49.704;9.908;2023-02-22T04:33:13;3.70;;;2.70;;
27670;SDS011;15077;49.704;9.908;2023-02-22T04:35:40;3.65;;;2.70;;
27670;SDS011;15077;49.704;9.908;2023-02-22T04:38:06;3.38;;;2.90;;
27670;SDS011;15077;49.704;9.908;2023-02-22T04:40:33;4.63;;;3.05;;
27670;SDS011;15077;49.704;9.908;2023-02-22T04:42:59;4.10;;;2.67;;
27670;SDS011;15077;49.704;9.908;2023-02-22T04:45:25;2.78;;;2.47;;
27670;SDS011;15077;49.704;9.908;2023-02-22T04:47:51;2.80;;;2.08;;
27670;SDS011;15077;49.704;9.908;2023-02-22T04:50:17;3.53;;;2.67;;
27670;SDS011;15077;49.704;9.908;2023-02-22T04:52:43;4.00;;;2.80;;
27670;SDS011;15077;49.704;9.908;2023-02-22T04:55:09;3.20;;;2.40;;
27670;SDS011;15077;49.704;9.908;2023-02-22T04:57:35;3.10;;;2.42;;
27670;SDS011;15077;49.704;9.908;2023-02-22T05:00:01;2.72;;;2.10;;
27670;SDS011;15077;49.704;9.908;2023-02-22T05:02:30;3.33;;;2.30;;
27670;SDS011;15077;49.704;9.908;2023-02-22T05:04:56;3.25;;;2.40;;
27670;SDS011;15077;49.704;9.908;2023-02-22T05:07:22;2.90;;;2.33;;
27670;SDS011;15077;49.704;9.908;2023-02-22T05:09:48;4.65;;;2.60;;
27670;SDS011;15077;49.704;9.908;2023-02-22T05:12:13;2.92;;;2.33;;
27670;SDS011;15077;49.704;9.908;2023-02-22T05:14:40;3.65;;;2.65;;
27670;SDS011;15077;49.704;9.908;2023-02-22T05:17:06;3.22;;;2.30;;
27670;SDS011;15077;49.704;9.908;2023-02-22T05:19:32;3.80;;;2.72;;
27670;SDS011;15077;49.704;9.908;2023-02-22T05:21:58;4.47;;;2.97;;
27670;SDS011;15077;49.704;9.908;2023-02-22T05:24:24;3.70;;;2.53;;
27670;SDS011;15077;49.704;9.908;2023-02-22T05:26:50;3.72;;;2.20;;
27670;SDS011;15077;49.704;9.908;2023-02-22T05:29:17;3.63;;;2.10;;
27670;SDS011;15077;49.704;9.908;2023-02-22T05:31:43;2.70;;;2.28;;
27670;SDS011;15077;49.704;9.908;2023-02-22T05:34:09;5.40;;;2.30;;
27670;SDS011;15077;49.704;9.908;2023-02-22T05:36:35;2.88;;;2.35;;
27670;SDS011;15077;49.704;9.908;2023-02-22T05:39:01;5.07;;;2.60;;
27670;SDS011;15077;49.704;9.908;2023-02-22T05:41:27;3.40;;;2.33;;
27670;SDS011;15077;49.704;9.908;2023-02-22T05:43:53;3.17;;;2.58;;
27670;SDS011;15077;49.704;9.908;2023-02-22T05:46:18;3.35;;;2.78;;
27670;SDS011;15077;49.704;9.908;2023-02-22T05:48:44;4.63;;;2.58;;
27670;SDS011;15077;49.704;9.908;2023-02-22T05:51:10;2.75;;;2.30;;
27670;SDS011;15077;49.704;9.908;2023-02-22T05:53:36;3.67;;;2.70;;
27670;SDS011;15077;49.704;9.908;2023-02-22T05:56:02;2.75;;;2.45;;
27670;SDS011;15077;49.704;9.908;2023-02-22T05:58:28;2.55;;;2.03;;
27670;SDS011;15077;49.704;9.908;2023-02-22T06:00:53;2.55;;;2.28;;
27670;SDS011;15077;49.704;9.908;2023-02-22T06:03:19;3.63;;;2.70;;
27670;SDS011;15077;49.704;9.908;2023-02-22T06:05:45;3.03;;;2.13;;
27670;SDS011;15077;49.704;9.908;2023-02-22T06:08:11;3.53;;;2.58;;
27670;SDS011;15077;49.704;9.908;2023-02-22T06:10:36;2.45;;;1.67;;
27670;SDS011;15077;49.704;9.908;2023-02-22T06:13:02;2.50;;;2.10;;
27670;SDS011;15077;49.704;9.908;2023-02-22T06:15:30;2.70;;;2.40;;
27670;SDS011;15077;49.704;9.908;2023-02-22T06:17:56;3.00;;;2.22;;
27670;SDS011;15077;49.704;9.908;2023-02-22T06:20:24;3.25;;;2.20;;
27670;SDS011;15077;49.704;9.908;2023-02-22T06:22:53;4.63;;;2.03;;
27670;SDS011;15077;49.704;9.908;2023-02-22T06:25:23;3.88;;;2.28;;
27670;SDS011;15077;49.704;9.908;2023-02-22T06:27:51;2.88;;;2.22;;
27670;SDS011;15077;49.704;9.908;2023-02-22T06:30:18;3.20;;;2.67;;
27670;SDS011;15077;49.704;9.908;2023-02-22T06:32:46;2.17;;;1.98;;
27670;SDS011;15077;49.704;9.908;2023-02-22T06:35:11;2.20;;;1.83;;
27670;SDS011;15077;49.704;9.908;2023-02-22T06:37:39;2.97;;;2.28;;
27670;SDS011;15077;49.704;9.908;2023-02-22T06:40:05;2.38;;;1.90;;
27670;SDS011;15077;49.704;9.908;2023-02-22T06:42:31;13.63;;;2.15;;
27670;SDS011;15077;49.704;9.908;2023-02-22T06:44:57;2.80;;;2.20;;
27670;SDS011;15077;49.704;9.908;2023-02-22T06:47:23;2.33;;;1.92;;
27670;SDS011;15077;49.704;9.908;2023-02-22T06:49:55;2.40;;;2.13;;
27670;SDS011;15077;49.704;9.908;2023-02-22T06:52:24;2.80;;;2.05;;
27670;SDS011;15077;49.704;9.908;2023-02-22T06:54:50;3.25;;;2.45;;
27670;SDS011;15077;49.704;9.908;2023-02-22T06:57:17;3.20;;;2.42;;
27670;SDS011;15077;49.704;9.908;2023-02-22T06:59:42;3.63;;;2.28;;
27670;SDS011;15077;49.704;9.908;2023-02-22T07:02:11;3.05;;;2.47;;
27670;SDS011;15077;49.704;9.908;2023-02-22T07:04:37;2.83;;;2.30;;
27670;SDS011;15077;49.704;9.908;2023-02-22T07:07:03;7.03;;;2.67;;
27670;SDS011;15077;49.704;9.908;2023-02-22T07:09:29;3.40;;;2.40;;
27670;SDS011;15077;49.704;9.908;2023-02-22T07:11:55;3.40;;;2.40;;
27670;SDS011;15077;49.704;9.908;2023-02-22T07:14:21;2.85;;;2.30;;
27670;SDS011;15077;49.704;9.908;2023-02-22T07:16:47;3.10;;;2.20;;
27670;SDS011;15077;49.704;9.908;2023-02-22T07:19:13;5.78;;;3.33;;
27670;SDS011;15077;49.704;9.908;2023-02-22T07:21:38;2.88;;;2.58;;
27670;SDS011;15077;49.704;9.908;2023-02-22T07:24:04;3.08;;;2.78;;
27670;SDS011;15077;49.704;9.908;2023-02-22T07:26:30;5.43;;;3.33;;
27670;SDS011;15077;49.704;9.908;2023-02-22T07:29:03;4.25;;;3.00;;
27670;SDS011;15077;49.704;9.908;2023-02-22T07:31:33;6.38;;;3.47;;
27670;SDS011;15077;49.704;9.908;2023-02-22T07:34:03;4.60;;;3.40;;
27670;SDS011;15077;49.704;9.908;2023-02-22T07:36:29;4.22;;;3.13;;
27670;SDS011;15077;49.704;9.908;2023-02-22T07:38:54;5.65;;;3.65;;
27670;SDS011;15077;49.704;9.908;2023-02-22T07:41:20;3.42;;;3.10;;
27670;SDS011;15077;49.704;9.908;2023-02-22T07:43:47;4.60;;;3.50;;
27670;SDS011;15077;49.704;9.908;2023-02-22T07:46:13;19.33;;;4.28;;
27670;SDS011;15077;49.704;9.908;2023-02-22T07:48:39;4.28;;;2.65;;
27670;SDS011;15077;49.704;9.908;2023-02-22T07:51:04;4.95;;;2.97;;
27670;SDS011;15077;49.704;9.908;2023-02-22T07:53:30;4.95;;;3.60;;
27670;SDS011;15077;49.704;9.908;2023-02-22T07:56:01;5.85;;;3.40;;
27670;SDS011;15077;49.704;9.908;2023-02-22T07:58:29;6.38;;;5.07;;
27670;SDS011;15077;49.704;9.908;2023-02-22T08:00:56;6.68;;;4.97;;
27670;SDS011;15077;49.704;9.908;2023-02-22T08:03:24;4.07;;;2.85;;
27670;SDS011;15077;49.704;9.908;2023-02-22T08:05:52;4.22;;;3.20;;
27670;SDS011;15077;49.704;9.908;2023-02-22T08:08:22;4.10;;;2.78;;
27670;SDS011;15077;49.704;9.908;2023-02-22T08:10:48;4.13;;;3.45;;
27670;SDS011;15077;49.704;9.908;2023-02-22T08:13:15;3.78;;;3.35;;
27670;SDS011;15077;49.704;9.908;2023-02-22T08:15:42;4.07;;;3.05;;
27670;SDS011;15077;49.704;9.908;2023-02-22T08:18:09;3.83;;;2.67;;
27670;SDS011;15077;49.704;9.908;2023-02-22T08:20:39;4.50;;;3.13;;
27670;SDS011;15077;49.704;9.908;2023-02-22T08:23:07;4.82;;;3.90;;
27670;SDS011;15077;49.704;9.908;2023-02-22T08:25:34;4.00;;;3.10;;
27670;SDS011;15077;49.704;9.908;2023-02-22T08:28:04;3.80;;;2.80;;
27670;SDS011;15077;49.704;9.908;2023-02-22T08:30:32;8.57;;;4.72;;
27670;SDS011;15077;49.704;9.908;2023-02-22T08:33:00;4.15;;;3.50;;
27670;SDS011;15077;49.704;9.908;2023-02-22T08:35:27;6.40;;;4.03;;
27670;SDS011;15077;49.704;9.908;2023-02-22T08:37:57;20.63;;;4.30;;
27670;SDS011;15077;49.704;9.908;2023-02-22T08:40:29;6.43;;;4.13;;
27670;SDS011;15077;49.704;9.908;2023-02-22T08:42:59;6.25;;;4.22;;
27670;SDS011;15077;49.704;9.908;2023-02-22T08:45:27;12.13;;;6.95;;
27670;SDS011;15077;49.704;9.908;2023-02-22T08:47:53;7.80;;;6.95;;
27670;SDS011;15077;49.704;9.908;2023-02-22T08:50:23;7.43;;;5.18;;
27670;SDS011;15077;49.704;9.908;2023-02-22T08:52:58;4.43;;;3.22;;
27670;SDS011;15077;49.704;9.908;2023-02-22T08:55:27;5.10;;;3.97;;
27670;SDS011;15077;49.704;9.908;2023-02-22T08:57:56;8.52;;;4.72;;
27670;SDS011;15077;49.704;9.908;2023-02-22T09:00:25;6.18;;;4.38;;
27670;SDS011;15077;49.704;9.908;2023-02-22T09:02:53;5.63;;;4.32;;
27670;SDS011;15077;49.704;9.908;2023-02-22T09:05:20;5.07;;;3.90;;
27670;SDS011;15077;49.704;9.908;2023-02-22T09:07:46;5.97;;;3.40;;
27670;SDS011;15077;49.704;9.908;2023-02-22T09:10:12;4.63;;;3.70;;
27670;SDS011;15077;49.704;9.908;2023-02-22T09:12:43;6.28;;;4.20;;
27670;SDS011;15077;49.704;9.908;2023-02-22T09:15:09;6.93;;;4.53;;
27670;SDS011;15077;49.704;9.908;2023-02-22T09:17:36;5.88;;;4.43;;
27670;SDS011;15077;49.704;9.908;2023-02-22T09:20:02;7.40;;;4.88;;
27670;SDS011;15077;49.704;9.908;2023-02-22T09:22:32;5.10;;;3.70;;
27670;SDS011;15077;49.704;9.908;2023-02-22T09:24:58;5.28;;;4.20;;
27670;SDS011;15077;49.704;9.908;2023-02-22T09:27:24;5.28;;;4.30;;
27670;SDS011;15077;49.704;9.908;2023-02-22T09:29:52;4.97;;;4.18;;
27670;SDS011;15077;49.704;9.908;2023-02-22T09:32:20;5.38;;;4.55;;
27670;SDS011;15077;49.704;9.908;2023-02-22T09:34:48;6.32;;;4.53;;
27670;SDS011;15077;49.704;9.908;2023-02-22T09:37:16;4.90;;;3.80;;
27670;SDS011;15077;49.704;9.908;2023-02-22T09:39:42;5.57;;;4.13;;
27670;SDS011;15077;49.704;9.908;2023-02-22T09:42:30;6.07;;;4.68;;
27670;SDS011;15077;49.704;9.908;2023-02-22T09:45:23;8.50;;;6.35;;
27670;SDS011;15077;49.704;9.908;2023-02-22T09:48:00;12.52;;;8.57;;
27670;SDS011;15077;49.704;9.908;2023-02-22T09:50:33;7.07;;;5.55;;
27670;SDS011;15077;49.704;9.908;2023-02-22T09:55:53;9.30;;;6.45;;
27670;SDS011;15077;49.704;9.908;2023-02-22T09:58:35;8.25;;;6.45;;
27670;SDS011;15077;49.704;9.908;2023-02-22T10:09:54;8.60;;;6.47;;
27670;SDS011;15077;49.704;9.908;2023-02-22T10:12:29;9.70;;;7.20;;
27670;SDS011;15077;49.704;9.908;2023-02-22T10:15:07;9.52;;;8.15;;
27670;SDS011;15077;49.704;9.908;2023-02-22T10:24:33;9.30;;;8.27;;
27670;SDS011;15077;49.704;9.908;2023-02-22T10:30:02;9.95;;;7.97;;
27670;SDS011;15077;49.704;9.908;2023-02-22T10:32:42;9.48;;;7.00;;
27670;SDS011;15077;49.704;9.908;2023-02-22T10:35:21;8.68;;;7.78;;
27670;SDS011;15077;49.704;9.908;2023-02-22T10:37:56;9.40;;;7.47;;
27670;SDS011;15077;49.704;9.908;2023-02-22T10:40:35;7.93;;;6.60;;
27670;SDS011;15077;49.704;9.908;2023-02-22T10:43:03;9.73;;;7.32;;
27670;SDS011;15077;49.704;9.908;2023-02-22T10:45:32;9.32;;;7.18;;
27670;SDS011;15077;49.704;9.908;2023-02-22T10:48:03;7.85;;;7.05;;
27670;SDS011;15077;49.704;9.908;2023-02-22T10:50:39;7.65;;;6.47;;
27670;SDS011;15077;49.704;9.908;2023-02-22T10:53:09;7.20;;;5.85;;
27670;SDS011;15077;49.704;9.908;2023-02-22T10:55:35;8.55;;;7.65;;
27670;SDS011;15077;49.704;9.908;2023-02-22T10:58:58;7.88;;;6.10;;
27670;SDS011;15077;49.704;9.908;2023-02-22T11:06:40;8.82;;;7.55;;
27670;SDS011;15077;49.704;9.908;2023-02-22T11:11:40;6.53;;;5.70;;
27670;SDS011;15077;49.704;9.908;2023-02-22T11:14:11;8.70;;;7.80;;
27670;SDS011;15077;49.704;9.908;2023-02-22T11:16:50;7.93;;;6.95;;
27670;SDS011;15077;49.704;9.908;2023-02-22T11:19:23;9.40;;;6.35;;
27670;SDS011;15077;49.704;9.908;2023-02-22T11:22:41;8.63;;;7.60;;
27670;SDS011;15077;49.704;9.908;2023-02-22T11:25:04;9.85;;;6.75;;
27670;SDS011;15077;49.704;9.908;2023-02-22T11:30:13;7.10;;;6.45;;
27670;SDS011;15077;49.704;9.908;2023-02-22T11:32:57;10.23;;;7.75;;
27670;SDS011;15077;49.704;9.908;2023-02-22T11:38:52;7.47;;;6.55;;
27670;SDS011;15077;49.704;9.908;2023-02-22T11:41:20;8.32;;;6.07;;
27670;SDS011;15077;49.704;9.908;2023-02-22T11:44:10;13.18;;;8.60;;
27670;SDS011;15077;49.704;9.908;2023-02-22T11:46:51;10.05;;;6.95;;
27670;SDS011;15077;49.704;9.908;2023-02-22T11:49:21;12.20;;;7.13;;
27670;SDS011;15077;49.704;9.908;2023-02-22T11:54:53;12.77;;;10.13;;
27670;SDS011;15077;49.704;9.908;2023-02-22T11:58:17;10.00;;;6.88;;
27670;SDS011;15077;49.704;9.908;2023-02-22T12:10:07;7.00;;;5.05;;
27670;SDS011;15077;49.704;9.908;2023-02-22T12:16:18;5.70;;;5.10;;
27670;SDS011;15077;49.704;9.908;2023-02-22T12:21:43;9.40;;;5.85;;
27670;SDS011;15077;49.704;9.908;2023-02-22T12:24:19;7.05;;;5.63;;
27670;SDS011;15077;49.704;9.908;2023-02-22T12:26:55;6.18;;;4.90;;
27670;SDS011;15077;49.704;9.908;2023-02-22T12:29:30;4.75;;;4.10;;
27670;SDS011;15077;49.704;9.908;2023-02-22T12:32:07;5.45;;;4.50;;
27670;SDS011;15077;49.704;9.908;2023-02-22T12:34:54;6.40;;;5.18;;
27670;SDS011;15077;49.704;9.908;2023-02-22T12:45:31;6.18;;;4.55;;
27670;SDS011;15077;49.704;9.908;2023-02-22T13:00:19;9.90;;;4.13;;
27670;SDS011;15077;49.704;9.908;2023-02-22T13:03:22;6.15;;;4.40;;
27670;SDS011;15077;49.704;9.908;2023-02-22T13:06:10;5.05;;;3.40;;
27670;SDS011;15077;49.704;9.908;2023-02-22T13:14:39;4.78;;;3.10;;
27670;SDS011;15077;49.704;9.908;2023-02-22T13:23:00;3.33;;;2.92;;
27670;SDS011;15077;49.704;9.908;2023-02-22T13:25:33;4.60;;;3.45;;
27670;SDS011;15077;49.704;9.908;2023-02-22T13:39:34;5.07;;;3.70;;
27670;SDS011;15077;49.704;9.908;2023-02-22T13:51:01;3.95;;;2.90;;
27670;SDS011;15077;49.704;9.908;2023-02-22T13:56:49;3.65;;;3.13;;
27670;SDS011;15077;49.704;9.908;2023-02-22T13:59:22;5.20;;;3.22;;
27670;SDS011;15077;49.704;9.908;2023-02-22T14:01:58;3.85;;;3.40;;
27670;SDS011;15077;49.704;9.908;2023-02-22T14:06:54;5.75;;;3.78;;
27670;SDS011;15077;49.704;9.908;2023-02-22T14:17:37;5.03;;;3.15;;
27670;SDS011;15077;49.704;9.908;2023-02-22T14:20:25;4.00;;;2.70;;
27670;SDS011;15077;49.704;9.908;2023-02-22T14:25:47;4.35;;;3.40;;
27670;SDS011;15077;49.704;9.908;2023-02-22T14:31:22;3.80;;;2.60;;
27670;SDS011;15077;49.704;9.908;2023-02-22T14:47:40;4.78;;;2.40;;
27670;SDS011;15077;49.704;9.908;2023-02-22T14:50:41;4.10;;;2.60;;
27670;SDS011;15077;49.704;9.908;2023-02-22T14:53:25;8.52;;;5.60;;
27670;SDS011;15077;49.704;9.908;2023-02-22T14:56:12;5.00;;;3.25;;
27670;SDS011;15077;49.704;9.908;2023-02-22T15:02:23;4.45;;;2.75;;
27670;SDS011;15077;49.704;9.908;2023-02-22T15:04:49;4.97;;;3.40;;
27670;SDS011;15077;49.704;9.908;2023-02-22T15:12:52;3.42;;;2.30;;
27670;SDS011;15077;49.704;9.908;2023-02-22T15:18:39;3.47;;;2.13;;
27670;SDS011;15077;49.704;9.908;2023-02-22T15:21:09;3.33;;;2.38;;
27670;SDS011;15077;49.704;9.908;2023-02-22T15:26:32;4.28;;;3.10;;
27670;SDS011;15077;49.704;9.908;2023-02-22T15:31:38;3.67;;;2.60;;
27670;SDS011;15077;49.704;9.908;2023-02-22T15:34:16;5.72;;;4.03;;
27670;SDS011;15077;49.704;9.908;2023-02-22T15:36:44;5.55;;;2.88;;
27670;SDS011;15077;49.704;9.908;2023-02-22T15:39:19;7.13;;;4.28;;
27670;SDS011;15077;49.704;9.908;2023-02-22T15:42:04;4.30;;;3.00;;
27670;SDS011;15077;49.704;9.908;2023-02-22T15:44:39;3.90;;;2.60;;
27670;SDS011;15077;49.704;9.908;2023-02-22T15:47:11;3.47;;;2.53;;
27670;SDS011;15077;49.704;9.908;2023-02-22T15:52:53;3.65;;;2.78;;
27670;SDS011;15077;49.704;9.908;2023-02-22T15:55:33;4.18;;;3.15;;
27670;SDS011;15077;49.704;9.908;2023-02-22T15:58:11;4.38;;;3.33;;
27670;SDS011;15077;49.704;9.908;2023-02-22T16:00:50;3.53;;;2.90;;
27670;SDS011;15077;49.704;9.908;2023-02-22T16:03:35;5.15;;;3.92;;
27670;SDS011;15077;49.704;9.908;2023-02-22T16:11:35;3.90;;;2.88;;
27670;SDS011;15077;49.704;9.908;2023-02-22T16:19:49;5.47;;;3.40;;
27670;SDS011;15077;49.704;9.908;2023-02-22T16:25:43;7.30;;;5.05;;
27670;SDS011;15077;49.704;9.908;2023-02-22T16:27:47;6.82;;;4.40;;
27670;SDS011;15077;49.704;9.908;2023-02-22T16:30:25;6.20;;;3.78;;
27670;SDS011;15077;49.704;9.908;2023-02-22T16:32:56;4.53;;;3.20;;
27670;SDS011;15077;49.704;9.908;2023-02-22T16:35:23;3.95;;;2.72;;
27670;SDS011;15077;49.704;9.908;2023-02-22T16:38:25;3.53;;;2.38;;
27670;SDS011;15077;49.704;9.908;2023-02-22T16:40:51;3.97;;;2.83;;
27670;SDS011;15077;49.704;9.908;2023-02-22T16:43:29;3.80;;;2.63;;
27670;SDS011;15077;49.704;9.908;2023-02-22T16:46:00;4.97;;;3.10;;
27670;SDS011;15077;49.704;9.908;2023-02-22T16:48:28;4.15;;;2.65;;
27670;SDS011;15077;49.704;9.908;2023-02-22T16:51:00;3.72;;;2.83;;
27670;SDS011;15077;49.704;9.908;2023-02-22T16:53:41;3.65;;;2.70;;
27670;SDS011;15077;49.704;9.908;2023-02-22T16:56:08;3.38;;;2.25;;
27670;SDS011;15077;49.704;9.908;2023-02-22T16:58:39;3.95;;;3.00;;
27670;SDS011;15077;49.704;9.908;2023-02-22T17:01:06;5.05;;;3.05;;
27670;SDS011;15077;49.704;9.908;2023-02-22T17:03:32;4.82;;;3.20;;
27670;SDS011;15077;49.704;9.908;2023-02-22T17:05:57;5.25;;;3.47;;
27670;SDS011;15077;49.704;9.908;2023-02-22T17:08:23;5.80;;;3.60;;
27670;SDS011;15077;49.704;9.908;2023-02-22T17:10:49;5.60;;;3.05;;
27670;SDS011;15077;49.704;9.908;2023-02-22T17:13:21;5.05;;;3.45;;
27670;SDS011;15077;49.704;9.908;2023-02-22T17:15:50;5.07;;;2.97;;
27670;SDS011;15077;49.704;9.908;2023-02-22T17:18:16;4.15;;;3.00;;
27670;SDS011;15077;49.704;9.908;2023-02-22T17:20:47;3.42;;;2.50;;
27670;SDS011;15077;49.704;9.908;2023-02-22T17:23:14;2.53;;;1.92;;
27670;SDS011;15077;49.704;9.908;2023-02-22T17:25:42;3.00;;;2.33;;
27670;SDS011;15077;49.704;9.908;2023-02-22T17:28:13;3.75;;;2.63;;
27670;SDS011;15077;49.704;9.908;2023-02-22T17:30:39;3.60;;;2.42;;
27670;SDS011;15077;49.704;9.908;2023-02-22T17:33:08;4.20;;;2.78;;
27670;SDS011;15077;49.704;9.908;2023-02-22T17:35:41;3.30;;;2.58;;
27670;SDS011;15077;49.704;9.908;2023-02-22T17:38:08;3.97;;;2.95;;
27670;SDS011;15077;49.704;9.908;2023-02-22T17:40:34;3.50;;;2.65;;
27670;SDS011;15077;49.704;9.908;2023-02-22T17:43:03;3.42;;;2.85;;
27670;SDS011;15077;49.704;9.908;2023-02-22T17:45:33;4.85;;;4.00;;
27670;SDS011;15077;49.704;9.908;2023-02-22T17:48:02;6.07;;;4.68;;
27670;SDS011;15077;49.704;9.908;2023-02-22T17:50:28;5.53;;;4.65;;
27670;SDS011;15077;49.704;9.908;2023-02-22T17:52:56;5.72;;;4.22;;
27670;SDS011;15077;49.704;9.908;2023-02-22T17:55:27;5.45;;;3.70;;
27670;SDS011;15077;49.704;9.908;2023-02-22T17:57:54;4.10;;;3.28;;
27670;SDS011;15077;49.704;9.908;2023-02-22T18:00:22;3.55;;;2.40;;
27670;SDS011;15077;49.704;9.908;2023-02-22T18:02:58;3.05;;;2.17;;
27670;SDS011;15077;49.704;9.908;2023-02-22T18:05:37;2.65;;;2.25;;
27670;SDS011;15077;49.704;9.908;2023-02-22T18:08:10;2.42;;;1.63;;
27670;SDS011;15077;49.704;9.908;2023-02-22T18:10:36;2.55;;;2.10;;
27670;SDS011;15077;49.704;9.908;2023-02-22T18:13:03;2.15;;;1.50;;
27670;SDS011;15077;49.704;9.908;2023-02-22T18:15:29;2.58;;;1.52;;
27670;SDS011;15077;49.704;9.908;2023-02-22T18:17:59;1.88;;;1.40;;
27670;SDS011;15077;49.704;9.908;2023-02-22T18:20:29;2.63;;;1.70;;
27670;SDS011;15077;49.704;9.908;2023-02-22T18:23:02;3.63;;;2.30;;
27670;SDS011;15077;49.704;9.908;2023-02-22T18:25:34;5.43;;;3.60;;
27670;SDS011;15077;49.704;9.908;2023-02-22T18:28:02;4.60;;;4.07;;
27670;SDS011;15077;49.704;9.908;2023-02-22T18:30:30;5.22;;;3.90;;
27670;SDS011;15077;49.704;9.908;2023-02-22T18:32:57;4.18;;;3.42;;
27670;SDS011;15077;49.704;9.908;2023-02-22T18:35:23;3.97;;;3.05;;
27670;SDS011;15077;49.704;9.908;2023-02-22T18:37:48;3.03;;;2.65;;
27670;SDS011;15077;49.704;9.908;2023-02-22T18:40:14;5.28;;;4.18;;
27670;SDS011;15077;49.704;9.908;2023-02-22T18:42:43;9.65;;;5.47;;
27670;SDS011;15077;49.704;9.908;2023-02-22T18:45:10;5.30;;;3.92;;
27670;SDS011;15077;49.704;9.908;2023-02-22T18:47:37;4.53;;;3.00;;